Time;durP1;ratioP1;P1;durP2;ratioP2;P2;SDS_P1;SDS_P2;PMS_P1;PMS_P2;Temp;Humidity;BMP_temperature;BMP_pressure;BME280_temperature;BME280_humidity;BME280_pressure;Samples;Min_cycle;Max_cycle;Signal;HPM_P1;HPM_P2
2021/11/27 00:01:54;;;;;;;;;;;;;;;13.01;47.95;98480.22;5102613;28;19916;-85
2021/11/27 00:04:19;;;;;;;;;;;;;;;13.18;47.31;98481.31;5101953;28;19924;-84
2021/11/27 00:06:45;;;;;;;;;;;;;;;13.60;46.33;98478.16;5083289;28;20369;-83
2021/11/27 00:09:10;;;;;;;;;;;;;;;13.50;47.04;98475.50;5084233;28;19916;-85
2021/11/27 00:11:36;;;;;;;;;;;;;;;13.38;46.84;98474.00;5084702;28;19983;-85
2021/11/27 00:14:02;;;;;;;;;;;;;;;13.89;46.59;98475.31;5084050;28;19965;-85
2021/11/27 00:16:28;;;;;;;;;;;;;;;13.80;46.37;98470.78;5084109;28;19916;-84
2021/11/27 00:18:53;;;;;;;;;;;;;;;13.78;46.32;98473.66;5082071;28;19912;-86
2021/11/27 00:21:21;;;;;;;;;;;;;;;13.65;47.10;98473.16;5081580;28;19916;-85
2021/11/27 00:23:48;;;;;;;;;;;;;;;13.92;46.18;98471.41;5080768;28;19947;-84
2021/11/27 00:26:14;;;;;;;;;;;;;;;13.80;46.37;98473.50;5081787;28;19955;-85
2021/11/27 00:28:39;;;;;;;;;;;;;;;13.56;47.02;98468.63;5084903;28;19924;-84
2021/11/27 00:31:07;;;;;;;;;;;;;;;13.47;47.37;98467.66;5082731;28;19922;-85
2021/11/27 00:33:32;;;;;;;;;;;;;;;13.65;46.41;98473.16;5083710;28;19920;-86
2021/11/27 00:35:57;;;;;;;;;;;;;;;13.69;47.26;98462.81;5082087;28;19937;-83
2021/11/27 00:38:23;;;;;;;;;;;;;;;13.69;46.78;98458.22;5082747;28;19916;-84
2021/11/27 00:40:48;;;;;;;;;;;;;;;13.70;47.00;98454.53;5081463;28;19927;-85
2021/11/27 00:43:14;;;;;;;;;;;;;;;13.53;46.73;98450.75;5082004;28;19916;-84
2021/11/27 00:45:40;;;;;;;;;;;;;;;13.35;47.13;98458.84;5082326;28;19916;-84
2021/11/27 00:48:06;;;;;;;;;;;;;;;13.08;47.86;98455.06;5082924;28;19920;-85
2021/11/27 00:50:35;;;;;;;;;;;;;;;13.16;47.65;98445.31;5083030;28;19916;-85
2021/11/27 00:53:04;;;;;;;;;;;;;;;13.17;48.03;98453.31;5101051;28;19920;-85
2021/11/27 00:55:31;;;;;;;;;;;;;;;13.14;47.74;98447.34;5082215;28;19916;-85
2021/11/27 00:57:56;;;;;;;;;;;;;;;12.78;48.38;98450.72;5081629;28;19920;-83
2021/11/27 01:00:24;;;;;;;;;;;;;;;12.67;49.29;98456.31;5081089;28;19992;-85
2021/11/27 01:02:49;;;;;;;;;;;;;;;11.01;52.32;98454.16;5082503;28;19916;-88
2021/11/27 01:05:15;;;;;;;;;;;;;;;11.09;53.43;98448.91;5082510;28;19923;-86
2021/11/27 01:07:41;;;;;;;;;;;;;;;11.19;52.33;98443.56;5082897;28;19971;-83
2021/11/27 01:10:09;;;;;;;;;;;;;;;11.01;53.30;98442.50;5082853;28;19920;-86
2021/11/27 01:12:34;;;;;;;;;;;;;;;10.39;54.03;98439.72;5082046;28;19939;-85
2021/11/27 01:15:00;;;;;;;;;;;;;;;9.42;57.05;98450.41;5081685;28;19916;-84
2021/11/27 01:17:25;;;;;;;;;;;;;;;11.54;52.21;98436.84;5083003;28;19943;-85
2021/11/27 01:19:51;;;;;;;;;;;;;;;11.99;50.30;98443.66;5082880;28;19969;-86
2021/11/27 01:22:17;;;;;;;;;;;;;;;12.08;50.48;98448.22;5083275;28;20386;-85
2021/11/27 01:24:43;;;;;;;;;;;;;;;12.08;50.22;98450.94;5083477;28;19916;-86
2021/11/27 01:27:09;;;;;;;;;;;;;;;11.92;50.22;98447.88;5083818;28;19904;-84
2021/11/27 01:29:36;;;;;;;;;;;;;;;12.07;49.73;98448.34;5084030;28;19927;-86
2021/11/27 01:32:01;;;;;;;;;;;;;;;11.76;50.25;98440.28;5082769;28;19995;-84
2021/11/27 01:34:27;;;;;;;;;;;;;;;12.38;49.48;98443.66;5083688;28;20000;-86
2021/11/27 01:36:52;;;;;;;;;;;;;;;11.62;50.03;98447.81;5083381;28;19916;-85
2021/11/27 01:39:17;;;;;;;;;;;;;;;11.65;50.73;98450.25;5102628;28;19916;-85
2021/11/27 01:41:43;;;;;;;;;;;;;;;11.97;50.52;98454.63;5102676;28;20258;-86
2021/11/27 01:44:08;;;;;;;;;;;;;;;10.66;52.66;98449.09;5085083;28;19916;-85
2021/11/27 01:46:34;;;;;;;;;;;;;;;11.12;51.83;98451.34;5085222;28;19930;-84
2021/11/27 01:49:00;;;;;;;;;;;;;;;11.47;51.28;98446.50;5084170;28;19917;-86
2021/11/27 01:51:25;;;;;;;;;;;;;;;11.97;50.24;98451.03;5103334;28;19977;-85
2021/11/27 01:53:54;;;;;;;;;;;;;;;10.33;53.47;98464.53;5108162;28;19916;-83
2021/11/27 01:56:22;;;;;;;;;;;;;;;11.13;52.38;98463.06;5091555;28;19916;-83
2021/11/27 01:58:48;;;;;;;;;;;;;;;11.75;50.58;98455.69;5103967;28;19923;-83
2021/11/27 02:01:15;;;;;;;;;;;;;;;11.85;50.07;98463.81;5086023;28;19916;-87
2021/11/27 02:03:41;;;;;;;;;;;;;;;11.47;51.15;98471.75;5084971;28;19977;-84
2021/11/27 02:06:07;;;;;;;;;;;;;;;12.32;48.86;98461.34;5084476;28;19924;-84
2021/11/27 02:08:33;;;;;;;;;;;;;;;11.80;48.82;98463.41;5083806;28;19916;-85
2021/11/27 02:10:58;;;;;;;;;;;;;;;11.61;50.84;98465.06;5102671;28;19924;-85
2021/11/27 02:13:24;;;;;;;;;;;;;;;11.98;49.32;98469.03;5102559;28;19916;-86
2021/11/27 02:15:49;;;;;;;;;;;;;;;12.30;48.75;98462.47;5085274;28;19923;-86
2021/11/27 02:18:15;;;;;;;;;;;;;;;12.58;48.36;98463.47;5103578;28;20137;-85
2021/11/27 02:21:01;;;;;;;;;;;;;;;12.19;48.45;98467.03;5083912;28;20011;-85
2021/11/27 02:23:31;;;;;;;;;;;;;;;12.64;47.90;98473.72;5080173;28;20245;-85
2021/11/27 02:25:58;;;;;;;;;;;;;;;13.20;46.59;98476.59;5083241;28;19920;-85
2021/11/27 02:28:24;;;;;;;;;;;;;;;13.25;46.91;98477.84;5084767;28;19916;-84
2021/11/27 02:30:49;;;;;;;;;;;;;;;13.11;47.19;98478.34;5083885;28;19916;-84
2021/11/27 02:33:14;;;;;;;;;;;;;;;12.38;48.13;98476.19;5082765;28;19921;-85
2021/11/27 02:35:40;;;;;;;;;;;;;;;11.84;48.82;98484.66;5083783;28;19923;-87
2021/11/27 02:38:05;;;;;;;;;;;;;;;11.05;51.71;98495.31;5083811;28;19916;-86
2021/11/27 02:40:31;;;;;;;;;;;;;;;10.96;53.01;98503.25;5084196;28;19926;-86
2021/11/27 02:42:56;;;;;;;;;;;;;;;10.95;51.80;98498.84;5083856;28;19950;-86
2021/11/27 02:45:22;;;;;;;;;;;;;;;11.65;50.52;98484.59;5083067;28;19922;-85
2021/11/27 02:47:47;;;;;;;;;;;;;;;11.61;49.99;98486.75;5086151;28;19923;-84
2021/11/27 02:50:13;;;;;;;;;;;;;;;11.44;50.68;98487.38;5104767;28;19996;-87
2021/11/27 02:52:40;;;;;;;;;;;;;;;10.72;52.60;98498.13;5105936;28;19916;-86
2021/11/27 02:55:06;;;;;;;;;;;;;;;11.69;50.47;98503.16;5088200;28;19927;-86
2021/11/27 02:57:32;;;;;;;;;;;;;;;11.96;49.24;98493.56;5087474;28;19912;-85
2021/11/27 02:59:58;;;;;;;;;;;;;;;11.72;50.38;98496.59;5105416;28;19920;-86
2021/11/27 03:02:24;;;;;;;;;;;;;;;12.55;48.10;98494.44;5087702;28;19916;-87
2021/11/27 03:04:49;;;;;;;;;;;;;;;12.61;47.50;98501.16;5105335;28;19916;-86
2021/11/27 03:07:15;;;;;;;;;;;;;;;11.92;48.79;98502.06;5087361;28;19923;-86
2021/11/27 03:09:41;;;;;;;;;;;;;;;12.28;48.43;98499.72;5088356;28;19912;-87
2021/11/27 03:12:06;;;;;;;;;;;;;;;11.94;49.21;98490.13;5088506;28;19939;-85
2021/11/27 03:14:32;;;;;;;;;;;;;;;11.87;48.71;98497.06;5087942;28;19939;-84
2021/11/27 03:16:57;;;;;;;;;;;;;;;11.98;49.34;98499.69;5087247;28;20186;-83
2021/11/27 03:19:23;;;;;;;;;;;;;;;12.19;48.78;98504.13;5087592;28;19924;-86
2021/11/27 03:21:48;;;;;;;;;;;;;;;12.32;47.98;98498.44;5088282;28;19920;-84
2021/11/27 03:24:14;;;;;;;;;;;;;;;12.35;48.78;98507.16;5105786;28;20014;-85
2021/11/27 03:26:39;;;;;;;;;;;;;;;12.73;48.36;98501.84;5088240;28;19999;-85
2021/11/27 03:29:05;;;;;;;;;;;;;;;12.09;49.34;98508.69;5088321;28;19991;-85
2021/11/27 03:31:30;;;;;;;;;;;;;;;11.71;50.69;98519.25;5088053;28;19979;-84
2021/11/27 03:33:55;;;;;;;;;;;;;;;12.09;50.09;98519.53;5086637;28;19924;-85
2021/11/27 03:36:20;;;;;;;;;;;;;;;12.51;49.10;98517.41;5087877;28;19916;-86
2021/11/27 03:38:46;;;;;;;;;;;;;;;12.29;49.58;98531.25;5087706;28;19967;-86
2021/11/27 03:41:12;;;;;;;;;;;;;;;11.47;51.54;98528.59;5087696;28;20296;-84
2021/11/27 03:43:38;;;;;;;;;;;;;;;11.90;50.21;98537.44;5104443;28;20417;-85
2021/11/27 03:46:04;;;;;;;;;;;;;;;12.20;49.92;98527.53;5088014;28;19955;-84
2021/11/27 03:48:31;;;;;;;;;;;;;;;11.89;50.63;98524.88;5105620;28;19923;-84
2021/11/27 03:50:57;;;;;;;;;;;;;;;12.53;49.24;98537.13;5104790;28;20046;-84
2021/11/27 03:53:27;;;;;;;;;;;;;;;12.54;48.85;98537.97;5105301;28;19916;-86
2021/11/27 03:55:53;;;;;;;;;;;;;;;12.27;48.88;98533.25;5087384;28;19923;-85
2021/11/27 03:58:19;;;;;;;;;;;;;;;12.39;48.50;98537.53;5086381;28;19916;-84
2021/11/27 04:00:45;;;;;;;;;;;;;;;12.46;48.02;98540.56;5086863;28;19954;-85
2021/11/27 04:03:12;;;;;;;;;;;;;;;12.31;48.24;98543.66;5086759;28;19978;-84
2021/11/27 04:05:42;;;;;;;;;;;;;;;12.39;48.25;98538.41;5087225;28;19955;-85
2021/11/27 04:08:07;;;;;;;;;;;;;;;12.47;48.03;98545.84;5105319;28;19923;-85
2021/11/27 04:10:33;;;;;;;;;;;;;;;12.92;46.93;98547.09;5086624;28;19916;-87
2021/11/27 04:12:59;;;;;;;;;;;;;;;12.71;47.10;98548.13;5087126;28;19924;-86
2021/11/27 04:15:25;;;;;;;;;;;;;;;12.73;47.64;98545.25;5086830;28;19916;-87
2021/11/27 04:17:50;;;;;;;;;;;;;;;12.48;48.07;98563.81;5087063;28;19968;-86
2021/11/27 04:20:16;;;;;;;;;;;;;;;12.75;47.76;98559.53;5104435;28;19927;-87
2021/11/27 04:22:41;;;;;;;;;;;;;;;12.69;48.00;98566.38;5086284;28;19916;-86
2021/11/27 04:25:07;;;;;;;;;;;;;;;12.89;47.09;98566.38;5102354;28;19916;-85
2021/11/27 04:27:32;;;;;;;;;;;;;;;12.92;47.31;98574.22;5084208;28;19916;-84
2021/11/27 04:29:57;;;;;;;;;;;;;;;12.93;47.37;98567.81;5085222;28;19987;-85
2021/11/27 04:32:23;;;;;;;;;;;;;;;12.57;48.24;98570.22;5102310;28;19927;-85
2021/11/27 04:34:48;;;;;;;;;;;;;;;12.59;47.73;98566.38;5085699;28;19924;-86
2021/11/27 04:37:15;;;;;;;;;;;;;;;12.55;47.90;98580.38;5104065;28;19923;-86
2021/11/27 04:39:41;;;;;;;;;;;;;;;12.69;47.83;98579.94;5084714;28;19916;-86
2021/11/27 04:42:07;;;;;;;;;;;;;;;12.75;47.82;98581.22;5103362;28;19996;-85
2021/11/27 04:44:32;;;;;;;;;;;;;;;12.61;47.86;98590.66;5085250;28;19972;-86
2021/11/27 04:46:57;;;;;;;;;;;;;;;12.66;47.79;98593.78;5084708;28;19917;-86
2021/11/27 04:49:23;;;;;;;;;;;;;;;12.77;47.26;98590.97;5084431;28;19916;-87
2021/11/27 04:51:48;;;;;;;;;;;;;;;12.86;47.27;98600.09;5085110;28;19916;-86
2021/11/27 04:54:13;;;;;;;;;;;;;;;13.22;46.32;98599.47;5086088;28;20320;-85
2021/11/27 04:56:38;;;;;;;;;;;;;;;13.02;47.39;98607.66;5089382;28;19948;-84
2021/11/27 04:59:04;;;;;;;;;;;;;;;12.44;47.47;98608.50;5092438;28;20416;-86
2021/11/27 05:01:29;;;;;;;;;;;;;;;12.77;47.21;98612.66;5092549;28;19916;-86
2021/11/27 05:03:54;;;;;;;;;;;;;;;12.79;47.95;98608.94;5092448;28;19927;-85
2021/11/27 05:06:20;;;;;;;;;;;;;;;12.69;47.42;98612.50;5106358;28;19916;-86
2021/11/27 05:08:45;;;;;;;;;;;;;;;12.58;47.75;98615.34;5083750;28;19916;-84
2021/11/27 05:11:11;;;;;;;;;;;;;;;12.57;48.02;98619.06;5082219;28;20045;-86
2021/11/27 05:13:39;;;;;;;;;;;;;;;11.70;50.00;98629.47;5083707;28;20369;-87
2021/11/27 05:16:04;;;;;;;;;;;;;;;12.50;48.67;98628.75;5083003;28;19916;-86
2021/11/27 05:18:30;;;;;;;;;;;;;;;12.94;47.43;98623.81;5100497;28;19916;-85
2021/11/27 05:20:55;;;;;;;;;;;;;;;12.86;48.46;98626.34;5082900;28;19912;-87
2021/11/27 05:23:20;;;;;;;;;;;;;;;13.20;47.02;98632.22;5085137;28;20258;-86
2021/11/27 05:25:45;;;;;;;;;;;;;;;13.29;46.73;98630.50;5084927;28;19924;-86
2021/11/27 05:28:11;;;;;;;;;;;;;;;12.59;48.67;98636.03;5085179;28;19976;-85
2021/11/27 05:30:36;;;;;;;;;;;;;;;13.02;47.31;98640.22;5103406;28;19920;-86
2021/11/27 05:35:27;;;;;;;;;;;;;;;13.44;46.03;98645.34;5102243;28;19921;-85
2021/11/27 05:37:52;;;;;;;;;;;;;;;13.32;46.93;98654.63;5101679;28;19969;-85
2021/11/27 05:40:17;;;;;;;;;;;;;;;13.05;47.37;98658.94;5082571;28;19962;-85
2021/11/27 05:42:43;;;;;;;;;;;;;;;12.76;47.82;98661.63;5084925;28;19965;-83
2021/11/27 05:45:09;;;;;;;;;;;;;;;12.30;48.59;98661.22;5084708;28;20304;-84
2021/11/27 05:47:34;;;;;;;;;;;;;;;12.55;48.50;98667.16;5085412;28;19976;-85
2021/11/27 05:49:59;;;;;;;;;;;;;;;12.29;48.35;98667.69;5085416;28;19916;-85
2021/11/27 05:52:24;;;;;;;;;;;;;;;12.32;48.96;98670.09;5085430;28;19924;-85
2021/11/27 05:54:50;;;;;;;;;;;;;;;12.82;48.06;98669.22;5084799;28;19916;-84
2021/11/27 05:57:15;;;;;;;;;;;;;;;12.58;47.81;98683.16;5102493;28;20365;-84
2021/11/27 05:59:41;;;;;;;;;;;;;;;11.67;50.48;98683.03;5102618;28;19916;-84
2021/11/27 06:02:06;;;;;;;;;;;;;;;11.98;49.62;98688.50;5102641;28;19920;-83
2021/11/27 06:04:31;;;;;;;;;;;;;;;11.68;50.10;98691.03;5102851;28;19912;-84
2021/11/27 06:06:57;;;;;;;;;;;;;;;12.28;48.72;98693.06;5103014;28;19919;-83
2021/11/27 06:09:22;;;;;;;;;;;;;;;11.60;50.49;98698.97;5102505;28;20357;-83
2021/11/27 06:11:51;;;;;;;;;;;;;;;12.52;47.99;98700.84;5084809;28;19938;-89
2021/11/27 06:14:16;;;;;;;;;;;;;;;12.20;49.09;98711.88;5083916;28;19960;-85
2021/11/27 06:16:41;;;;;;;;;;;;;;;12.61;48.19;98710.00;5085040;28;19916;-85
2021/11/27 06:19:08;;;;;;;;;;;;;;;12.37;48.85;98716.63;5103556;28;20333;-89
2021/11/27 06:21:34;;;;;;;;;;;;;;;12.18;49.09;98724.69;5105596;28;20388;-86
2021/11/27 06:23:59;;;;;;;;;;;;;;;12.04;49.18;98728.63;5089905;28;19924;-87
2021/11/27 06:26:25;;;;;;;;;;;;;;;11.98;49.60;98742.72;5089447;28;19978;-85
2021/11/27 06:28:50;;;;;;;;;;;;;;;11.50;51.18;98735.94;5107331;28;19916;-86
2021/11/27 06:31:16;;;;;;;;;;;;;;;12.25;49.07;98736.72;5088832;28;19916;-86
2021/11/27 06:33:41;;;;;;;;;;;;;;;11.75;50.52;98741.97;5106984;28;20013;-88
2021/11/27 06:36:07;;;;;;;;;;;;;;;11.35;52.04;98743.50;5088383;28;19940;-86
2021/11/27 06:38:32;;;;;;;;;;;;;;;10.54;54.11;98756.56;5088607;28;20394;-86
2021/11/27 06:40:58;;;;;;;;;;;;;;;11.29;52.30;98746.75;5088926;28;19908;-86
2021/11/27 06:43:23;;;;;;;;;;;;;;;11.55;51.24;98755.38;5088305;28;19916;-86
2021/11/27 06:45:51;;;;;;;;;;;;;;;11.28;52.10;98753.16;5087144;28;19916;-85
2021/11/27 06:48:16;;;;;;;;;;;;;;;11.13;52.71;98766.13;5086637;28;19924;-85
2021/11/27 06:50:41;;;;;;;;;;;;;;;11.32;51.96;98768.13;5087085;28;19962;-87
2021/11/27 06:53:07;;;;;;;;;;;;;;;11.04;52.71;98777.72;5088563;28;19924;-85
2021/11/27 06:55:32;;;;;;;;;;;;;;;10.01;55.51;98789.50;5088534;28;20263;-87
2021/11/27 06:57:58;;;;;;;;;;;;;;;11.65;51.73;98796.06;5087852;28;19938;-85
2021/11/27 07:00:23;;;;;;;;;;;;;;;11.57;51.62;98799.44;5087472;28;20278;-86
2021/11/27 07:02:48;;;;;;;;;;;;;;;11.62;52.29;98788.19;5085174;28;19916;-88
2021/11/27 07:05:13;;;;;;;;;;;;;;;11.22;52.14;98795.13;5083810;28;19977;-89
2021/11/27 07:07:41;;;;;;;;;;;;;;;10.59;53.99;98798.44;5101078;28;20285;-90
2021/11/27 07:10:06;;;;;;;;;;;;;;;10.76;54.39;98804.31;5083498;28;20189;-86
2021/11/27 07:12:32;;;;;;;;;;;;;;;11.16;52.35;98806.47;5082158;28;19923;-85
2021/11/27 07:14:58;;;;;;;;;;;;;;;11.18;53.12;98809.91;5082257;28;19920;-85
2021/11/27 07:17:23;;;;;;;;;;;;;;;12.28;50.54;98806.94;5099432;28;19922;-84
2021/11/27 07:19:49;;;;;;;;;;;;;;;11.48;52.46;98814.59;5081677;28;19916;-85
2021/11/27 07:22:14;;;;;;;;;;;;;;;11.53;52.34;98812.38;5099984;28;19931;-86
2021/11/27 07:24:39;;;;;;;;;;;;;;;11.25;52.88;98816.53;5082679;28;19970;-86
2021/11/27 07:27:06;;;;;;;;;;;;;;;11.38;52.74;98821.75;5082039;28;19916;-86
2021/11/27 07:29:38;;;;;;;;;;;;;;;11.67;52.02;98823.88;5081340;28;19916;-85
2021/11/27 07:32:04;;;;;;;;;;;;;;;12.31;50.38;98830.22;5081842;28;19916;-87
2021/11/27 07:34:29;;;;;;;;;;;;;;;12.55;49.55;98829.91;5081507;28;20596;-86
2021/11/27 07:36:54;;;;;;;;;;;;;;;11.28;52.60;98834.38;5080932;28;19920;-87
2021/11/27 07:39:19;;;;;;;;;;;;;;;11.73;52.36;98849.59;5081671;28;19916;-85
2021/11/27 07:41:45;;;;;;;;;;;;;;;11.93;51.34;98851.50;5081942;28;19998;-87
2021/11/27 07:44:10;;;;;;;;;;;;;;;12.12;50.06;98853.47;5082402;28;20377;-86
2021/11/27 07:46:35;;;;;;;;;;;;;;;12.02;50.80;98856.13;5083217;28;19967;-86
2021/11/27 07:49:01;;;;;;;;;;;;;;;11.65;51.56;98859.22;5082058;28;19951;-86
2021/11/27 07:51:28;;;;;;;;;;;;;;;11.58;52.37;98866.16;5081059;28;20369;-80
2021/11/27 07:53:53;;;;;;;;;;;;;;;10.81;54.59;98875.16;5098760;28;19940;-84
2021/11/27 07:56:18;;;;;;;;;;;;;;;10.57;55.19;98876.13;5099472;28;19946;-86
2021/11/27 07:58:44;;;;;;;;;;;;;;;10.59;55.72;98884.09;5085488;28;20018;-85
2021/11/27 08:01:09;;;;;;;;;;;;;;;11.23;53.47;98885.31;5082870;28;19951;-85
2021/11/27 08:03:35;;;;;;;;;;;;;;;10.77;54.62;98892.59;5080894;28;20010;-84
2021/11/27 08:06:00;;;;;;;;;;;;;;;10.99;53.87;98899.84;5080037;28;19975;-86
2021/11/27 08:08:28;;;;;;;;;;;;;;;11.33;53.28;98903.38;5078507;28;19942;-83
2021/11/27 08:10:53;;;;;;;;;;;;;;;10.67;54.32;98905.13;5096900;28;19938;-85
2021/11/27 08:13:19;;;;;;;;;;;;;;;11.01;54.64;98902.44;5079687;28;19920;-84
2021/11/27 08:15:44;;;;;;;;;;;;;;;10.98;54.19;98904.38;5079758;28;20338;-84
2021/11/27 08:18:10;;;;;;;;;;;;;;;11.30;53.21;98908.19;5080496;28;20395;-84
2021/11/27 08:20:35;;;;;;;;;;;;;;;11.13;53.68;98901.44;5081292;28;19926;-86
2021/11/27 08:23:01;;;;;;;;;;;;;;;10.67;54.19;98913.25;5099086;28;19928;-85
2021/11/27 08:25:27;;;;;;;;;;;;;;;10.64;54.72;98919.75;5098425;28;19966;-83
2021/11/27 08:27:52;;;;;;;;;;;;;;;10.87;54.58;98920.66;5081726;28;19916;-86
2021/11/27 08:30:17;;;;;;;;;;;;;;;10.86;54.90;98920.75;5099960;28;19923;-85
2021/11/27 08:32:47;;;;;;;;;;;;;;;12.08;51.81;98925.22;5099870;28;19920;-87
2021/11/27 08:35:13;;;;;;;;;;;;;;;11.80;51.80;98929.34;5081589;28;19974;-86
2021/11/27 08:37:38;;;;;;;;;;;;;;;11.49;52.16;98929.22;5081530;28;20581;-88
2021/11/27 08:40:06;;;;;;;;;;;;;;;12.07;51.25;98933.47;5079349;28;19966;-84
2021/11/27 08:42:31;;;;;;;;;;;;;;;11.39;53.07;98939.91;5095549;28;19950;-83
2021/11/27 08:44:57;;;;;;;;;;;;;;;12.16;50.73;98941.69;5079492;28;19920;-86
2021/11/27 08:47:22;;;;;;;;;;;;;;;11.89;51.54;98942.97;5080298;28;19916;-84
2021/11/27 08:49:48;;;;;;;;;;;;;;;11.81;51.85;98956.31;5097862;28;19916;-86
2021/11/27 08:52:14;;;;;;;;;;;;;;;12.13;51.25;98952.78;5098376;28;19947;-83
2021/11/27 08:54:39;;;;;;;;;;;;;;;11.94;51.15;98956.19;5098200;28;19920;-84
2021/11/27 08:57:05;;;;;;;;;;;;;;;11.49;52.40;98961.69;5097305;28;20457;-81
2021/11/27 08:59:30;;;;;;;;;;;;;;;11.13;53.65;98963.69;5077958;28;19922;-83
2021/11/27 09:01:56;;;;;;;;;;;;;;;11.11;54.76;98957.53;5098055;28;19954;-84
2021/11/27 09:04:21;;;;;;;;;;;;;;;11.69;53.51;98966.31;5079758;28;20003;-84
2021/11/27 09:06:47;;;;;;;;;;;;;;;10.84;55.12;98956.06;5097643;28;20040;-83
2021/11/27 09:09:12;;;;;;;;;;;;;;;11.74;53.05;98960.50;5098389;28;19916;-83
2021/11/27 09:11:38;;;;;;;;;;;;;;;10.32;56.20;98965.50;5080354;28;20028;-83
2021/11/27 09:14:05;;;;;;;;;;;;;;;10.28;56.28;98963.03;5078717;28;19916;-84
2021/11/27 09:16:30;;;;;;;;;;;;;;;10.49;55.93;98962.34;5060865;28;20285;-83
2021/11/27 09:18:55;;;;;;;;;;;;;;;10.95;52.85;98963.31;5097395;28;19969;-84
2021/11/27 09:21:21;;;;;;;;;;;;;;;10.10;52.68;98975.25;5078762;28;19916;-84
2021/11/27 09:23:46;;;;;;;;;;;;;;;11.30;51.42;98974.00;5079247;28;19924;-84
2021/11/27 09:26:11;;;;;;;;;;;;;;;12.35;48.24;98975.34;5078752;28;19980;-86
2021/11/27 09:28:36;;;;;;;;;;;;;;;11.83;49.99;98983.28;5080438;28;19948;-85
2021/11/27 09:31:02;;;;;;;;;;;;;;;12.41;49.18;98973.00;5097573;28;19960;-86
2021/11/27 09:33:29;;;;;;;;;;;;;;;12.50;48.57;98984.91;5079406;28;19962;-86
2021/11/27 09:36:02;;;;;;;;;;;;;;;12.26;50.12;98981.56;5080063;28;20370;-85
2021/11/27 09:38:28;;;;;;;;;;;;;;;12.69;48.52;98991.47;5080309;28;19916;-84
2021/11/27 09:41:09;;;;;;;;;;;;;;;11.84;50.99;98994.00;5080353;28;20036;-83
2021/11/27 09:43:35;;;;;;;;;;;;;;;11.53;52.29;98998.34;5080832;28;19916;-84
2021/11/27 09:46:01;;;;;;;;;;;;;;;10.85;54.57;98995.63;5080378;28;19928;-83
2021/11/27 09:48:26;;;;;;;;;;;;;;;11.40;52.89;98993.09;5080130;28;19912;-84
2021/11/27 09:50:52;;;;;;;;;;;;;;;11.74;52.77;99003.00;5079352;28;19916;-84
2021/11/27 09:53:19;;;;;;;;;;;;;;;11.85;51.77;98998.44;5079687;28;19924;-84
2021/11/27 09:55:47;;;;;;;;;;;;;;;10.85;54.22;99009.16;5097033;28;19962;-81
2021/11/27 09:58:12;;;;;;;;;;;;;;;11.18;54.54;99007.47;5079372;28;20036;-83
2021/11/27 10:00:37;;;;;;;;;;;;;;;11.77;52.07;99008.19;5097947;28;19916;-84
2021/11/27 10:03:04;;;;;;;;;;;;;;;11.71;52.42;99009.53;5077522;28;19916;-83
2021/11/27 10:05:30;;;;;;;;;;;;;;;11.34;52.46;99002.56;5081510;28;19916;-82
2021/11/27 10:07:55;;;;;;;;;;;;;;;11.50;53.22;98996.78;5095175;28;20019;-83
2021/11/27 10:10:22;;;;;;;;;;;;;;;11.94;51.91;98987.84;5096002;28;19917;-83
2021/11/27 10:12:48;;;;;;;;;;;;;;;11.57;52.70;98989.00;5095000;28;20351;-84
2021/11/27 10:15:15;;;;;;;;;;;;;;;11.64;52.98;98986.63;5097078;28;19916;-84
2021/11/27 10:17:40;;;;;;;;;;;;;;;10.66;54.20;98980.00;5095830;28;19939;-83
2021/11/27 10:20:06;;;;;;;;;;;;;;;10.88;53.99;98983.72;5096228;28;19939;-85
2021/11/27 10:22:37;;;;;;;;;;;;;;;10.64;54.78;98985.53;5097230;28;20031;-84
2021/11/27 10:25:21;;;;;;;;;;;;;;;10.71;54.64;98983.19;5097099;28;19916;-84
2021/11/27 10:27:46;;;;;;;;;;;;;;;11.20;53.81;98988.41;5095361;28;20369;-84
2021/11/27 10:30:12;;;;;;;;;;;;;;;10.69;54.46;98993.28;5075185;28;19926;-85
2021/11/27 10:32:39;;;;;;;;;;;;;;;11.16;53.71;98990.50;5076189;28;19932;-84
2021/11/27 10:35:06;;;;;;;;;;;;;;;11.43;54.30;98983.84;5058825;28;19928;-86
2021/11/27 10:37:44;;;;;;;;;;;;;;;10.66;53.22;98989.94;5077164;28;19917;-85
2021/11/27 10:40:17;;;;;;;;;;;;;;;11.42;53.61;98982.13;5072759;28;19921;-86
2021/11/27 10:42:44;;;;;;;;;;;;;;;11.78;52.87;98983.66;5084878;28;20460;-85
2021/11/27 10:45:15;;;;;;;;;;;;;;;11.47;53.25;98982.59;5099829;28;19919;-86
2021/11/27 10:47:40;;;;;;;;;;;;;;;12.01;52.88;98973.66;5118369;28;19899;-86
2021/11/27 10:50:07;;;;;;;;;;;;;;;11.74;53.41;98990.31;5100504;28;19922;-86
2021/11/27 10:52:37;;;;;;;;;;;;;;;12.16;51.95;98986.91;5079640;28;19950;-84
2021/11/27 10:55:13;;;;;;;;;;;;;;;11.81;53.34;98987.97;5074362;28;19916;-85
2021/11/27 10:57:38;;;;;;;;;;;;;;;11.26;53.59;98996.91;5057090;28;20378;-84
2021/11/27 11:00:11;;;;;;;;;;;;;;;11.69;53.28;99000.69;5074031;28;19927;-83
2021/11/27 11:02:38;;;;;;;;;;;;;;;12.17;51.70;98994.91;5074803;28;19916;-84
2021/11/27 11:05:06;;;;;;;;;;;;;;;10.93;54.93;98993.19;5074841;28;19916;-83
2021/11/27 11:07:32;;;;;;;;;;;;;;;10.48;53.61;98998.50;5057454;28;19912;-82
2021/11/27 11:10:19;;;;;;;;;;;;;;;10.16;54.50;98982.00;5077975;28;19942;-82
2021/11/27 11:12:50;;;;;;;;;;;;;;;9.22;56.87;98997.88;5061179;28;19916;-82
2021/11/27 11:15:17;;;;;;;;;;;;;;;9.27;57.07;99006.50;5080104;28;19917;-81
2021/11/27 11:17:43;;;;;;;;;;;;;;;9.83;56.23;99003.34;5081644;28;19916;-82
2021/11/27 11:20:19;;;;;;;;;;;;;;;9.45;55.42;98993.53;5083192;28;19916;-81
2021/11/27 11:23:05;;;;;;;;;;;;;;;8.71;56.71;99004.16;5098763;28;20019;-80
2021/11/27 11:25:32;;;;;;;;;;;;;;;8.25;58.68;98996.50;5079438;28;19956;-81
2021/11/27 11:28:00;;;;;;;;;;;;;;;8.19;57.43;99002.31;5089398;28;19985;-79
2021/11/27 11:30:34;;;;;;;;;;;;;;;9.18;57.76;98993.69;5097402;28;19920;-81
2021/11/27 11:33:00;;;;;;;;;;;;;;;8.25;59.30;98997.34;5096947;28;19992;-81
2021/11/27 11:35:25;;;;;;;;;;;;;;;8.49;59.72;99002.94;5080399;28;19955;-82
2021/11/27 11:37:51;;;;;;;;;;;;;;;8.92;59.71;98992.81;5100576;28;19945;-81
2021/11/27 11:40:16;;;;;;;;;;;;;;;9.96;55.69;98986.22;5097653;28;19920;-83
2021/11/27 11:42:42;;;;;;;;;;;;;;;9.44;56.91;98988.25;5099416;28;19950;-87
2021/11/27 11:45:08;;;;;;;;;;;;;;;9.73;56.76;98989.63;5083636;28;19942;-86
2021/11/27 11:47:33;;;;;;;;;;;;;;;8.93;58.85;98991.88;5081300;28;19923;-83
2021/11/27 11:50:07;;;;;;;;;;;;;;;10.25;56.40;98984.88;5083451;28;19924;-85
2021/11/27 11:52:37;;;;;;;;;;;;;;;10.53;56.09;98990.03;5082631;28;20297;-86
2021/11/27 11:55:11;;;;;;;;;;;;;;;9.43;58.15;98989.22;5081658;28;19920;-85
2021/11/27 11:57:41;;;;;;;;;;;;;;;10.45;56.27;98988.78;5080350;28;19927;-82
2021/11/27 12:00:19;;;;;;;;;;;;;;;9.47;58.24;98991.56;5081987;28;19950;-86
2021/11/27 12:02:45;;;;;;;;;;;;;;;9.83;56.88;98997.94;5098451;28;19925;-86
2021/11/27 12:05:14;;;;;;;;;;;;;;;9.68;57.63;98988.28;5079482;28;19916;-87
2021/11/27 12:10:22;;;;;;;;;;;;;;;9.45;57.75;98993.53;5100986;28;20012;-87
2021/11/27 12:13:05;;;;;;;;;;;;;;;9.18;58.31;98991.00;5081538;28;20393;-87
2021/11/27 12:15:35;;;;;;;;;;;;;;;8.56;60.11;98995.31;5077863;28;19920;-83
2021/11/27 12:18:00;;;;;;;;;;;;;;;8.71;59.36;98990.69;5078442;28;20412;-84
2021/11/27 12:20:39;;;;;;;;;;;;;;;9.82;56.53;98995.34;5077209;28;19924;-83
2021/11/27 12:23:25;;;;;;;;;;;;;;;9.54;56.84;98987.44;5078444;28;19981;-85
2021/11/27 12:28:34;;;;;;;;;;;;;;;10.38;54.60;98998.34;5076210;28;19915;-85
2021/11/27 12:31:04;;;;;;;;;;;;;;;9.98;55.31;98995.94;5057718;28;19920;-85
2021/11/27 12:33:48;;;;;;;;;;;;;;;10.52;55.17;98986.44;5057379;28;19953;-83
2021/11/27 12:36:26;;;;;;;;;;;;;;;9.66;56.09;99004.59;5058157;28;19942;-83
2021/11/27 12:39:06;;;;;;;;;;;;;;;9.47;57.66;98990.72;5058905;28;19917;-85
2021/11/27 12:41:36;;;;;;;;;;;;;;;8.30;59.29;99005.13;5076458;28;19927;-83
2021/11/27 12:44:20;;;;;;;;;;;;;;;9.27;57.61;99011.03;5058300;28;20279;-83
2021/11/27 12:46:47;;;;;;;;;;;;;;;11.00;54.64;98996.25;5060233;28;19916;-81
2021/11/27 12:49:31;;;;;;;;;;;;;;;11.21;53.01;99001.81;5058392;28;19982;-87
2021/11/27 12:52:15;;;;;;;;;;;;;;;10.15;55.30;99010.03;5058873;28;19948;-82
2021/11/27 12:54:41;;;;;;;;;;;;;;;10.80;53.63;99005.97;5070335;28;19920;-83